sensor_id;sensor_type;location;lat;lon;timestamp;temperature;humidity
68433;DHT22;55412;51.350;17.056;2023-04-16T00:00:51;8.40;83.90
68433;DHT22;55412;51.350;17.056;2023-04-16T00:03:17;8.40;83.90
68433;DHT22;55412;51.350;17.056;2023-04-16T00:05:43;8.40;83.00
68433;DHT22;55412;51.350;17.056;2023-04-16T00:08:09;8.40;85.40
68433;DHT22;55412;51.350;17.056;2023-04-16T00:10:35;8.30;86.70
68433;DHT22;55412;51.350;17.056;2023-04-16T00:13:02;8.30;85.50
68433;DHT22;55412;51.350;17.056;2023-04-16T00:15:28;8.30;84.40
68433;DHT22;55412;51.350;17.056;2023-04-16T00:17:54;8.20;84.10
68433;DHT22;55412;51.350;17.056;2023-04-16T00:20:20;8.20;83.70
68433;DHT22;55412;51.350;17.056;2023-04-16T00:22:46;8.20;83.90
68433;DHT22;55412;51.350;17.056;2023-04-16T00:25:12;8.20;84.40
68433;DHT22;55412;51.350;17.056;2023-04-16T00:27:39;8.20;83.80
68433;DHT22;55412;51.350;17.056;2023-04-16T00:30:06;8.20;82.80
68433;DHT22;55412;51.350;17.056;2023-04-16T00:32:32;8.10;81.80
68433;DHT22;55412;51.350;17.056;2023-04-16T00:34:58;8.10;80.90
68433;DHT22;55412;51.350;17.056;2023-04-16T00:37:24;8.00;80.90
68433;DHT22;55412;51.350;17.056;2023-04-16T00:39:50;8.00;80.70
68433;DHT22;55412;51.350;17.056;2023-04-16T00:42:16;8.00;80.50
68433;DHT22;55412;51.350;17.056;2023-04-16T00:44:42;8.00;80.60
68433;DHT22;55412;51.350;17.056;2023-04-16T00:47:08;7.90;80.50
68433;DHT22;55412;51.350;17.056;2023-04-16T00:49:35;7.90;80.50
68433;DHT22;55412;51.350;17.056;2023-04-16T00:52:01;7.80;80.70
68433;DHT22;55412;51.350;17.056;2023-04-16T00:54:28;7.80;80.40
68433;DHT22;55412;51.350;17.056;2023-04-16T00:56:55;7.80;80.80
68433;DHT22;55412;51.350;17.056;2023-04-16T00:59:23;7.70;80.80
68433;DHT22;55412;51.350;17.056;2023-04-16T01:01:49;7.60;80.50
68433;DHT22;55412;51.350;17.056;2023-04-16T01:04:15;7.60;81.40
68433;DHT22;55412;51.350;17.056;2023-04-16T01:06:41;7.50;81.30
68433;DHT22;55412;51.350;17.056;2023-04-16T01:09:09;7.50;81.10
68433;DHT22;55412;51.350;17.056;2023-04-16T01:11:36;7.40;81.20
68433;DHT22;55412;51.350;17.056;2023-04-16T01:14:03;7.40;80.60
68433;DHT22;55412;51.350;17.056;2023-04-16T01:16:29;7.40;81.30
68433;DHT22;55412;51.350;17.056;2023-04-16T01:18:55;7.40;82.00
68433;DHT22;55412;51.350;17.056;2023-04-16T01:21:21;7.30;82.30
68433;DHT22;55412;51.350;17.056;2023-04-16T01:23:47;7.30;82.20
68433;DHT22;55412;51.350;17.056;2023-04-16T01:26:13;7.30;82.60
68433;DHT22;55412;51.350;17.056;2023-04-16T01:28:39;7.20;82.50
68433;DHT22;55412;51.350;17.056;2023-04-16T01:31:05;7.20;83.50
68433;DHT22;55412;51.350;17.056;2023-04-16T01:33:31;7.20;83.50
68433;DHT22;55412;51.350;17.056;2023-04-16T01:35:57;7.20;83.50
68433;DHT22;55412;51.350;17.056;2023-04-16T01:38:23;7.20;84.10
68433;DHT22;55412;51.350;17.056;2023-04-16T01:40:49;7.20;85.70
68433;DHT22;55412;51.350;17.056;2023-04-16T01:43:15;7.20;86.80
68433;DHT22;55412;51.350;17.056;2023-04-16T01:45:41;7.10;89.50
68433;DHT22;55412;51.350;17.056;2023-04-16T01:48:07;7.10;90.90
68433;DHT22;55412;51.350;17.056;2023-04-16T01:50:34;7.10;91.30
68433;DHT22;55412;51.350;17.056;2023-04-16T01:53:00;7.10;92.50
68433;DHT22;55412;51.350;17.056;2023-04-16T01:55:30;7.10;92.30
68433;DHT22;55412;51.350;17.056;2023-04-16T01:57:57;7.10;92.70
68433;DHT22;55412;51.350;17.056;2023-04-16T02:00:23;7.10;93.40
68433;DHT22;55412;51.350;17.056;2023-04-16T02:02:49;7.00;94.00
68433;DHT22;55412;51.350;17.056;2023-04-16T02:05:15;7.00;93.20
68433;DHT22;55412;51.350;17.056;2023-04-16T02:07:41;7.00;93.60
68433;DHT22;55412;51.350;17.056;2023-04-16T02:10:08;7.00;93.30
68433;DHT22;55412;51.350;17.056;2023-04-16T02:12:34;7.00;94.40
68433;DHT22;55412;51.350;17.056;2023-04-16T02:15:01;7.00;95.70
68433;DHT22;55412;51.350;17.056;2023-04-16T02:17:27;6.90;95.60
68433;DHT22;55412;51.350;17.056;2023-04-16T02:19:53;6.90;95.00
68433;DHT22;55412;51.350;17.056;2023-04-16T02:22:19;6.90;95.70
68433;DHT22;55412;51.350;17.056;2023-04-16T02:24:45;7.00;94.60
68433;DHT22;55412;51.350;17.056;2023-04-16T02:27:11;7.00;95.60
68433;DHT22;55412;51.350;17.056;2023-04-16T02:29:37;7.00;95.60
68433;DHT22;55412;51.350;17.056;2023-04-16T02:32:03;7.00;95.80
68433;DHT22;55412;51.350;17.056;2023-04-16T02:34:29;7.00;96.20
68433;DHT22;55412;51.350;17.056;2023-04-16T02:36:55;7.00;96.80
68433;DHT22;55412;51.350;17.056;2023-04-16T02:39:22;6.90;96.90
68433;DHT22;55412;51.350;17.056;2023-04-16T02:41:48;6.90;97.10
68433;DHT22;55412;51.350;17.056;2023-04-16T02:44:15;6.90;96.30
68433;DHT22;55412;51.350;17.056;2023-04-16T02:46:41;6.90;96.40
68433;DHT22;55412;51.350;17.056;2023-04-16T02:49:07;6.90;95.70
68433;DHT22;55412;51.350;17.056;2023-04-16T02:51:32;6.90;96.60
68433;DHT22;55412;51.350;17.056;2023-04-16T02:53:58;6.90;97.00
68433;DHT22;55412;51.350;17.056;2023-04-16T02:56:25;6.90;97.50
68433;DHT22;55412;51.350;17.056;2023-04-16T02:58:51;6.90;97.70
68433;DHT22;55412;51.350;17.056;2023-04-16T03:01:17;6.80;97.50
68433;DHT22;55412;51.350;17.056;2023-04-16T03:03:43;6.80;97.70
68433;DHT22;55412;51.350;17.056;2023-04-16T03:06:09;6.90;97.10
68433;DHT22;55412;51.350;17.056;2023-04-16T03:08:35;6.90;96.60
68433;DHT22;55412;51.350;17.056;2023-04-16T03:11:01;6.90;96.10
68433;DHT22;55412;51.350;17.056;2023-04-16T03:13:27;6.90;95.70
68433;DHT22;55412;51.350;17.056;2023-04-16T03:15:53;6.90;95.20
68433;DHT22;55412;51.350;17.056;2023-04-16T03:18:19;6.90;96.60
68433;DHT22;55412;51.350;17.056;2023-04-16T03:20:45;6.90;97.30
68433;DHT22;55412;51.350;17.056;2023-04-16T03:23:11;6.90;97.20
68433;DHT22;55412;51.350;17.056;2023-04-16T03:25:37;6.90;97.30
68433;DHT22;55412;51.350;17.056;2023-04-16T03:28:05;6.90;96.40
68433;DHT22;55412;51.350;17.056;2023-04-16T03:30:31;6.80;96.20
68433;DHT22;55412;51.350;17.056;2023-04-16T03:32:57;6.90;96.10
68433;DHT22;55412;51.350;17.056;2023-04-16T03:35:22;6.90;95.80
68433;DHT22;55412;51.350;17.056;2023-04-16T03:37:49;6.90;95.40
68433;DHT22;55412;51.350;17.056;2023-04-16T03:40:16;6.90;95.70
68433;DHT22;55412;51.350;17.056;2023-04-16T03:42:42;6.90;95.80
68433;DHT22;55412;51.350;17.056;2023-04-16T03:45:08;6.80;96.30
68433;DHT22;55412;51.350;17.056;2023-04-16T03:47:34;6.80;96.60
68433;DHT22;55412;51.350;17.056;2023-04-16T03:50:00;6.80;96.10
68433;DHT22;55412;51.350;17.056;2023-04-16T03:52:26;6.70;95.60
68433;DHT22;55412;51.350;17.056;2023-04-16T03:54:52;6.70;95.70
68433;DHT22;55412;51.350;17.056;2023-04-16T03:57:18;6.70;95.60
68433;DHT22;55412;51.350;17.056;2023-04-16T03:59:44;6.70;94.70
68433;DHT22;55412;51.350;17.056;2023-04-16T04:02:10;6.70;94.40
68433;DHT22;55412;51.350;17.056;2023-04-16T04:04:36;6.80;95.00
68433;DHT22;55412;51.350;17.056;2023-04-16T04:07:02;6.80;94.20
68433;DHT22;55412;51.350;17.056;2023-04-16T04:09:28;6.70;93.80
68433;DHT22;55412;51.350;17.056;2023-04-16T04:11:54;6.80;94.20
68433;DHT22;55412;51.350;17.056;2023-04-16T04:14:20;6.80;93.50
68433;DHT22;55412;51.350;17.056;2023-04-16T04:16:46;6.80;92.90
68433;DHT22;55412;51.350;17.056;2023-04-16T04:19:12;6.80;92.70
68433;DHT22;55412;51.350;17.056;2023-04-16T04:21:38;6.70;92.40
68433;DHT22;55412;51.350;17.056;2023-04-16T04:24:04;6.70;92.80
68433;DHT22;55412;51.350;17.056;2023-04-16T04:26:30;6.70;93.40
68433;DHT22;55412;51.350;17.056;2023-04-16T04:28:56;6.60;92.90
68433;DHT22;55412;51.350;17.056;2023-04-16T04:31:22;6.60;92.70
68433;DHT22;55412;51.350;17.056;2023-04-16T04:33:48;6.60;92.30
68433;DHT22;55412;51.350;17.056;2023-04-16T04:36:14;6.60;92.10
68433;DHT22;55412;51.350;17.056;2023-04-16T04:38:40;6.60;93.00
68433;DHT22;55412;51.350;17.056;2023-04-16T04:41:06;6.60;93.00
68433;DHT22;55412;51.350;17.056;2023-04-16T04:43:32;6.60;93.20
68433;DHT22;55412;51.350;17.056;2023-04-16T04:45:58;6.50;92.90
68433;DHT22;55412;51.350;17.056;2023-04-16T04:48:24;6.50;92.70
68433;DHT22;55412;51.350;17.056;2023-04-16T04:50:52;6.50;92.70
68433;DHT22;55412;51.350;17.056;2023-04-16T04:53:18;6.50;92.80
68433;DHT22;55412;51.350;17.056;2023-04-16T04:55:44;6.60;93.90
68433;DHT22;55412;51.350;17.056;2023-04-16T04:58:10;6.50;94.60
68433;DHT22;55412;51.350;17.056;2023-04-16T05:00:36;6.50;95.00
68433;DHT22;55412;51.350;17.056;2023-04-16T05:03:04;6.50;94.40
68433;DHT22;55412;51.350;17.056;2023-04-16T05:05:32;6.50;93.70
68433;DHT22;55412;51.350;17.056;2023-04-16T05:07:58;6.50;94.20
68433;DHT22;55412;51.350;17.056;2023-04-16T05:10:25;6.40;94.30
68433;DHT22;55412;51.350;17.056;2023-04-16T05:12:52;6.40;94.30
68433;DHT22;55412;51.350;17.056;2023-04-16T05:15:18;6.40;94.60
68433;DHT22;55412;51.350;17.056;2023-04-16T05:17:44;6.40;94.20
68433;DHT22;55412;51.350;17.056;2023-04-16T05:20:11;6.40;94.00
68433;DHT22;55412;51.350;17.056;2023-04-16T05:22:37;6.40;93.80
68433;DHT22;55412;51.350;17.056;2023-04-16T05:25:03;6.40;94.10
68433;DHT22;55412;51.350;17.056;2023-04-16T05:27:29;6.40;94.40
68433;DHT22;55412;51.350;17.056;2023-04-16T05:29:55;6.40;94.20
68433;DHT22;55412;51.350;17.056;2023-04-16T05:32:24;6.40;95.00
68433;DHT22;55412;51.350;17.056;2023-04-16T05:34:50;6.40;94.90
68433;DHT22;55412;51.350;17.056;2023-04-16T05:37:16;6.40;95.10
68433;DHT22;55412;51.350;17.056;2023-04-16T05:39:42;6.40;95.00
68433;DHT22;55412;51.350;17.056;2023-04-16T05:42:08;6.40;95.20
68433;DHT22;55412;51.350;17.056;2023-04-16T05:44:34;6.50;95.80
68433;DHT22;55412;51.350;17.056;2023-04-16T05:47:00;6.40;95.90
68433;DHT22;55412;51.350;17.056;2023-04-16T05:49:26;6.40;95.90
68433;DHT22;55412;51.350;17.056;2023-04-16T05:51:52;6.40;95.20
68433;DHT22;55412;51.350;17.056;2023-04-16T05:54:18;6.50;95.20
68433;DHT22;55412;51.350;17.056;2023-04-16T05:56:44;6.50;95.40
68433;DHT22;55412;51.350;17.056;2023-04-16T05:59:10;6.50;95.40
68433;DHT22;55412;51.350;17.056;2023-04-16T06:01:36;6.50;95.70
68433;DHT22;55412;51.350;17.056;2023-04-16T06:04:02;6.50;96.10
68433;DHT22;55412;51.350;17.056;2023-04-16T06:06:28;6.40;95.30
68433;DHT22;55412;51.350;17.056;2023-04-16T06:08:54;6.30;96.30
68433;DHT22;55412;51.350;17.056;2023-04-16T06:11:20;6.20;97.00
68433;DHT22;55412;51.350;17.056;2023-04-16T06:13:46;6.20;97.20
68433;DHT22;55412;51.350;17.056;2023-04-16T06:16:12;6.20;97.40
68433;DHT22;55412;51.350;17.056;2023-04-16T06:18:38;6.20;97.50
68433;DHT22;55412;51.350;17.056;2023-04-16T06:21:04;6.30;97.40
68433;DHT22;55412;51.350;17.056;2023-04-16T06:23:30;6.30;96.70
68433;DHT22;55412;51.350;17.056;2023-04-16T06:25:57;6.30;96.90
68433;DHT22;55412;51.350;17.056;2023-04-16T06:28:23;6.40;97.20
68433;DHT22;55412;51.350;17.056;2023-04-16T06:30:49;6.40;97.40
68433;DHT22;55412;51.350;17.056;2023-04-16T06:33:15;6.50;97.10
68433;DHT22;55412;51.350;17.056;2023-04-16T06:35:41;6.50;96.80
68433;DHT22;55412;51.350;17.056;2023-04-16T06:38:07;6.60;97.20
68433;DHT22;55412;51.350;17.056;2023-04-16T06:40:33;6.60;96.90
68433;DHT22;55412;51.350;17.056;2023-04-16T06:43:01;6.70;96.70
68433;DHT22;55412;51.350;17.056;2023-04-16T06:45:27;6.80;96.80
68433;DHT22;55412;51.350;17.056;2023-04-16T06:47:53;6.90;96.90
68433;DHT22;55412;51.350;17.056;2023-04-16T06:50:19;6.90;96.90
68433;DHT22;55412;51.350;17.056;2023-04-16T06:52:46;7.00;95.90
68433;DHT22;55412;51.350;17.056;2023-04-16T06:55:12;6.90;95.90
68433;DHT22;55412;51.350;17.056;2023-04-16T06:57:38;6.90;95.80
68433;DHT22;55412;51.350;17.056;2023-04-16T07:00:05;6.80;96.00
68433;DHT22;55412;51.350;17.056;2023-04-16T07:02:32;6.90;97.00
68433;DHT22;55412;51.350;17.056;2023-04-16T07:04:59;7.00;97.20
68433;DHT22;55412;51.350;17.056;2023-04-16T07:07:26;7.00;97.40
68433;DHT22;55412;51.350;17.056;2023-04-16T07:09:51;7.00;96.90
68433;DHT22;55412;51.350;17.056;2023-04-16T07:12:19;7.00;96.70
68433;DHT22;55412;51.350;17.056;2023-04-16T07:14:46;7.00;97.40
68433;DHT22;55412;51.350;17.056;2023-04-16T07:17:12;7.10;97.90
68433;DHT22;55412;51.350;17.056;2023-04-16T07:19:38;7.10;97.60
68433;DHT22;55412;51.350;17.056;2023-04-16T07:22:04;7.20;97.40
68433;DHT22;55412;51.350;17.056;2023-04-16T07:24:30;7.20;97.80
68433;DHT22;55412;51.350;17.056;2023-04-16T07:26:56;7.40;97.90
68433;DHT22;55412;51.350;17.056;2023-04-16T07:29:22;7.50;98.00
68433;DHT22;55412;51.350;17.056;2023-04-16T07:31:49;7.60;97.10
68433;DHT22;55412;51.350;17.056;2023-04-16T07:34:15;7.80;96.20
68433;DHT22;55412;51.350;17.056;2023-04-16T07:36:41;7.90;95.10
68433;DHT22;55412;51.350;17.056;2023-04-16T07:39:07;8.10;94.90
68433;DHT22;55412;51.350;17.056;2023-04-16T07:41:36;8.30;96.80
68433;DHT22;55412;51.350;17.056;2023-04-16T07:44:02;8.50;97.10
68433;DHT22;55412;51.350;17.056;2023-04-16T07:46:28;8.90;98.80
68433;DHT22;55412;51.350;17.056;2023-04-16T07:48:54;9.20;98.20
68433;DHT22;55412;51.350;17.056;2023-04-16T07:51:21;9.60;96.30
68433;DHT22;55412;51.350;17.056;2023-04-16T07:53:48;9.90;94.40
68433;DHT22;55412;51.350;17.056;2023-04-16T07:56:14;10.30;91.50
68433;DHT22;55412;51.350;17.056;2023-04-16T07:58:40;10.60;89.70
68433;DHT22;55412;51.350;17.056;2023-04-16T08:01:06;10.80;89.00
68433;DHT22;55412;51.350;17.056;2023-04-16T08:03:32;11.00;88.50
68433;DHT22;55412;51.350;17.056;2023-04-16T08:05:58;11.30;86.80
68433;DHT22;55412;51.350;17.056;2023-04-16T08:08:24;11.50;85.70
68433;DHT22;55412;51.350;17.056;2023-04-16T08:10:50;11.70;85.00
68433;DHT22;55412;51.350;17.056;2023-04-16T08:13:21;11.90;83.20
68433;DHT22;55412;51.350;17.056;2023-04-16T08:15:48;12.00;82.90
68433;DHT22;55412;51.350;17.056;2023-04-16T08:18:14;12.10;81.30
68433;DHT22;55412;51.350;17.056;2023-04-16T08:20:41;12.20;80.20
68433;DHT22;55412;51.350;17.056;2023-04-16T08:23:07;12.10;78.20
68433;DHT22;55412;51.350;17.056;2023-04-16T08:25:34;12.00;79.00
68433;DHT22;55412;51.350;17.056;2023-04-16T08:28:00;12.00;80.70
68433;DHT22;55412;51.350;17.056;2023-04-16T08:30:26;12.00;80.60
68433;DHT22;55412;51.350;17.056;2023-04-16T08:32:53;12.00;81.00
68433;DHT22;55412;51.350;17.056;2023-04-16T08:35:19;11.90;80.90
68433;DHT22;55412;51.350;17.056;2023-04-16T08:37:45;11.90;80.80
68433;DHT22;55412;51.350;17.056;2023-04-16T08:40:11;11.90;81.50
68433;DHT22;55412;51.350;17.056;2023-04-16T08:42:54;12.00;82.00
68433;DHT22;55412;51.350;17.056;2023-04-16T08:45:25;12.00;80.40
68433;DHT22;55412;51.350;17.056;2023-04-16T08:47:52;12.10;81.50
68433;DHT22;55412;51.350;17.056;2023-04-16T08:50:28;12.20;82.80
68433;DHT22;55412;51.350;17.056;2023-04-16T08:53:02;12.50;84.10
68433;DHT22;55412;51.350;17.056;2023-04-16T08:55:41;12.80;81.90
68433;DHT22;55412;51.350;17.056;2023-04-16T08:58:14;13.00;80.70
68433;DHT22;55412;51.350;17.056;2023-04-16T09:00:45;13.30;79.00
68433;DHT22;55412;51.350;17.056;2023-04-16T09:03:11;13.50;78.70
68433;DHT22;55412;51.350;17.056;2023-04-16T09:05:38;13.80;81.70
68433;DHT22;55412;51.350;17.056;2023-04-16T09:08:05;14.20;81.30
68433;DHT22;55412;51.350;17.056;2023-04-16T09:10:32;14.50;78.80
68433;DHT22;55412;51.350;17.056;2023-04-16T09:12:58;14.70;78.80
68433;DHT22;55412;51.350;17.056;2023-04-16T09:15:25;15.00;77.30
68433;DHT22;55412;51.350;17.056;2023-04-16T09:17:52;15.20;74.70
68433;DHT22;55412;51.350;17.056;2023-04-16T09:20:19;15.40;75.30
68433;DHT22;55412;51.350;17.056;2023-04-16T09:22:45;15.60;76.20
68433;DHT22;55412;51.350;17.056;2023-04-16T09:25:11;15.90;72.80
68433;DHT22;55412;51.350;17.056;2023-04-16T09:27:38;16.10;71.80
68433;DHT22;55412;51.350;17.056;2023-04-16T09:30:24;16.20;70.70
68433;DHT22;55412;51.350;17.056;2023-04-16T09:32:53;16.40;70.50
68433;DHT22;55412;51.350;17.056;2023-04-16T09:35:51;16.50;68.30
68433;DHT22;55412;51.350;17.056;2023-04-16T09:38:18;16.60;69.60
68433;DHT22;55412;51.350;17.056;2023-04-16T09:40:45;16.70;69.10
68433;DHT22;55412;51.350;17.056;2023-04-16T09:43:16;16.50;66.70
68433;DHT22;55412;51.350;17.056;2023-04-16T09:45:53;16.30;67.20
68433;DHT22;55412;51.350;17.056;2023-04-16T09:48:30;16.20;69.50
68433;DHT22;55412;51.350;17.056;2023-04-16T09:50:58;16.30;69.40
68433;DHT22;55412;51.350;17.056;2023-04-16T09:53:27;16.40;68.50
68433;DHT22;55412;51.350;17.056;2023-04-16T09:56:02;16.50;66.40
68433;DHT22;55412;51.350;17.056;2023-04-16T09:58:29;16.40;65.80
68433;DHT22;55412;51.350;17.056;2023-04-16T10:01:04;16.20;63.90
68433;DHT22;55412;51.350;17.056;2023-04-16T10:03:33;16.10;67.60
68433;DHT22;55412;51.350;17.056;2023-04-16T10:06:13;16.10;68.40
68433;DHT22;55412;51.350;17.056;2023-04-16T10:08:48;16.20;69.90
68433;DHT22;55412;51.350;17.056;2023-04-16T10:11:16;16.10;65.10
68433;DHT22;55412;51.350;17.056;2023-04-16T10:13:43;16.10;64.60
68433;DHT22;55412;51.350;17.056;2023-04-16T10:16:10;16.10;66.90
68433;DHT22;55412;51.350;17.056;2023-04-16T10:18:38;16.10;63.20
68433;DHT22;55412;51.350;17.056;2023-04-16T10:21:06;16.10;65.40
68433;DHT22;55412;51.350;17.056;2023-04-16T10:23:33;16.30;67.40
68433;DHT22;55412;51.350;17.056;2023-04-16T10:26:00;16.30;64.20
68433;DHT22;55412;51.350;17.056;2023-04-16T10:28:27;16.30;62.90
68433;DHT22;55412;51.350;17.056;2023-04-16T10:30:56;16.30;62.50
68433;DHT22;55412;51.350;17.056;2023-04-16T10:33:26;16.10;62.70
68433;DHT22;55412;51.350;17.056;2023-04-16T10:38:37;16.30;66.50
68433;DHT22;55412;51.350;17.056;2023-04-16T10:41:06;16.50;64.80
68433;DHT22;55412;51.350;17.056;2023-04-16T10:43:42;16.70;64.80
68433;DHT22;55412;51.350;17.056;2023-04-16T10:46:32;17.00;63.90
68433;DHT22;55412;51.350;17.056;2023-04-16T10:49:13;17.20;60.30
68433;DHT22;55412;51.350;17.056;2023-04-16T10:52:01;17.40;58.20
68433;DHT22;55412;51.350;17.056;2023-04-16T10:54:37;17.70;57.00
68433;DHT22;55412;51.350;17.056;2023-04-16T10:57:06;17.90;57.10
68433;DHT22;55412;51.350;17.056;2023-04-16T10:59:35;18.10;57.50
68433;DHT22;55412;51.350;17.056;2023-04-16T11:02:15;18.20;53.50
68433;DHT22;55412;51.350;17.056;2023-04-16T11:04:46;18.40;50.80
68433;DHT22;55412;51.350;17.056;2023-04-16T11:07:17;18.40;52.80
68433;DHT22;55412;51.350;17.056;2023-04-16T11:10:01;18.50;51.90
68433;DHT22;55412;51.350;17.056;2023-04-16T11:12:34;18.50;49.10
68433;DHT22;55412;51.350;17.056;2023-04-16T11:15:12;18.40;52.30
68433;DHT22;55412;51.350;17.056;2023-04-16T11:17:49;18.50;52.00
68433;DHT22;55412;51.350;17.056;2023-04-16T11:20:23;18.50;53.30
68433;DHT22;55412;51.350;17.056;2023-04-16T11:22:52;18.60;52.50
68433;DHT22;55412;51.350;17.056;2023-04-16T11:25:29;18.60;49.40
68433;DHT22;55412;51.350;17.056;2023-04-16T11:27:56;18.50;50.70
68433;DHT22;55412;51.350;17.056;2023-04-16T11:30:31;18.50;52.20
68433;DHT22;55412;51.350;17.056;2023-04-16T11:33:01;18.50;49.60
68433;DHT22;55412;51.350;17.056;2023-04-16T11:35:32;18.50;50.20
68433;DHT22;55412;51.350;17.056;2023-04-16T11:37:59;18.40;47.70
68433;DHT22;55412;51.350;17.056;2023-04-16T11:40:28;18.30;46.30
68433;DHT22;55412;51.350;17.056;2023-04-16T11:43:00;17.90;49.40
68433;DHT22;55412;51.350;17.056;2023-04-16T11:45:28;17.90;53.20
68433;DHT22;55412;51.350;17.056;2023-04-16T11:47:54;18.00;55.70
68433;DHT22;55412;51.350;17.056;2023-04-16T11:50:26;18.10;53.40
68433;DHT22;55412;51.350;17.056;2023-04-16T11:53:02;18.20;53.50
68433;DHT22;55412;51.350;17.056;2023-04-16T11:55:29;18.40;52.40
68433;DHT22;55412;51.350;17.056;2023-04-16T11:57:55;18.50;51.90
68433;DHT22;55412;51.350;17.056;2023-04-16T12:00:21;18.60;49.80
68433;DHT22;55412;51.350;17.056;2023-04-16T12:02:52;18.60;50.30
68433;DHT22;55412;51.350;17.056;2023-04-16T12:05:35;18.70;47.40
68433;DHT22;55412;51.350;17.056;2023-04-16T12:08:07;18.70;48.90
68433;DHT22;55412;51.350;17.056;2023-04-16T12:10:53;18.70;47.00
68433;DHT22;55412;51.350;17.056;2023-04-16T12:13:20;18.60;47.00
68433;DHT22;55412;51.350;17.056;2023-04-16T12:15:50;18.60;46.10
68433;DHT22;55412;51.350;17.056;2023-04-16T12:18:19;18.60;45.50
68433;DHT22;55412;51.350;17.056;2023-04-16T12:20:48;18.60;47.20
68433;DHT22;55412;51.350;17.056;2023-04-16T12:23:32;18.60;47.80
68433;DHT22;55412;51.350;17.056;2023-04-16T12:25:58;18.50;47.90
68433;DHT22;55412;51.350;17.056;2023-04-16T12:28:35;18.50;49.30
68433;DHT22;55412;51.350;17.056;2023-04-16T12:31:04;18.50;48.60
68433;DHT22;55412;51.350;17.056;2023-04-16T12:33:32;18.60;45.40
68433;DHT22;55412;51.350;17.056;2023-04-16T12:35:58;18.50;48.70
68433;DHT22;55412;51.350;17.056;2023-04-16T12:38:24;18.40;48.40
68433;DHT22;55412;51.350;17.056;2023-04-16T12:40:51;18.40;49.70
68433;DHT22;55412;51.350;17.056;2023-04-16T12:43:17;18.40;48.90
68433;DHT22;55412;51.350;17.056;2023-04-16T12:45:44;18.30;46.50
68433;DHT22;55412;51.350;17.056;2023-04-16T12:48:10;18.20;47.80
68433;DHT22;55412;51.350;17.056;2023-04-16T12:50:36;18.20;46.60
68433;DHT22;55412;51.350;17.056;2023-04-16T12:53:04;18.10;46.80
68433;DHT22;55412;51.350;17.056;2023-04-16T12:55:30;18.10;49.40
68433;DHT22;55412;51.350;17.056;2023-04-16T12:57:56;18.10;47.70
68433;DHT22;55412;51.350;17.056;2023-04-16T13:00:22;18.10;48.90
68433;DHT22;55412;51.350;17.056;2023-04-16T13:02:48;18.10;49.10
68433;DHT22;55412;51.350;17.056;2023-04-16T13:05:14;18.00;49.60
68433;DHT22;55412;51.350;17.056;2023-04-16T13:07:43;18.00;49.00
68433;DHT22;55412;51.350;17.056;2023-04-16T13:10:10;18.00;49.40
68433;DHT22;55412;51.350;17.056;2023-04-16T13:12:36;18.00;48.80
68433;DHT22;55412;51.350;17.056;2023-04-16T13:15:03;18.00;49.10
68433;DHT22;55412;51.350;17.056;2023-04-16T13:17:30;18.00;49.10
68433;DHT22;55412;51.350;17.056;2023-04-16T13:19:56;18.10;50.60
68433;DHT22;55412;51.350;17.056;2023-04-16T13:22:22;18.10;51.00
68433;DHT22;55412;51.350;17.056;2023-04-16T13:24:49;18.20;49.50
68433;DHT22;55412;51.350;17.056;2023-04-16T13:27:15;18.20;50.40
68433;DHT22;55412;51.350;17.056;2023-04-16T13:29:41;18.20;49.30
68433;DHT22;55412;51.350;17.056;2023-04-16T13:32:07;18.20;48.30
68433;DHT22;55412;51.350;17.056;2023-04-16T13:34:33;18.20;49.10
68433;DHT22;55412;51.350;17.056;2023-04-16T13:36:59;18.10;47.70
68433;DHT22;55412;51.350;17.056;2023-04-16T13:39:25;18.10;47.50
68433;DHT22;55412;51.350;17.056;2023-04-16T13:41:51;18.00;47.10
68433;DHT22;55412;51.350;17.056;2023-04-16T13:44:17;18.00;47.90
68433;DHT22;55412;51.350;17.056;2023-04-16T13:46:43;17.90;50.00
68433;DHT22;55412;51.350;17.056;2023-04-16T13:49:12;17.90;50.60
68433;DHT22;55412;51.350;17.056;2023-04-16T13:51:41;17.80;48.90
68433;DHT22;55412;51.350;17.056;2023-04-16T13:54:08;17.80;47.20
68433;DHT22;55412;51.350;17.056;2023-04-16T13:56:35;17.70;47.60
68433;DHT22;55412;51.350;17.056;2023-04-16T13:59:01;17.60;48.20
68433;DHT22;55412;51.350;17.056;2023-04-16T14:01:27;17.50;48.40
68433;DHT22;55412;51.350;17.056;2023-04-16T14:03:53;17.40;49.10
68433;DHT22;55412;51.350;17.056;2023-04-16T14:06:20;17.40;48.40
68433;DHT22;55412;51.350;17.056;2023-04-16T14:08:46;17.30;48.10
68433;DHT22;55412;51.350;17.056;2023-04-16T14:11:12;17.20;47.60
68433;DHT22;55412;51.350;17.056;2023-04-16T14:13:38;17.20;50.30
68433;DHT22;55412;51.350;17.056;2023-04-16T14:16:04;17.20;50.40
68433;DHT22;55412;51.350;17.056;2023-04-16T14:18:30;17.20;49.50
68433;DHT22;55412;51.350;17.056;2023-04-16T14:20:56;17.20;48.40
68433;DHT22;55412;51.350;17.056;2023-04-16T14:23:23;17.20;49.80
68433;DHT22;55412;51.350;17.056;2023-04-16T14:25:49;17.20;49.00
68433;DHT22;55412;51.350;17.056;2023-04-16T14:28:15;17.20;48.80
68433;DHT22;55412;51.350;17.056;2023-04-16T14:30:41;17.20;47.80
68433;DHT22;55412;51.350;17.056;2023-04-16T14:33:08;17.10;48.10
68433;DHT22;55412;51.350;17.056;2023-04-16T14:35:34;17.10;47.70
68433;DHT22;55412;51.350;17.056;2023-04-16T14:38:00;17.00;48.90
68433;DHT22;55412;51.350;17.056;2023-04-16T14:40:26;17.00;50.70
68433;DHT22;55412;51.350;17.056;2023-04-16T14:42:52;17.00;51.70
68433;DHT22;55412;51.350;17.056;2023-04-16T14:45:18;17.00;48.90
68433;DHT22;55412;51.350;17.056;2023-04-16T14:47:44;17.00;48.90
68433;DHT22;55412;51.350;17.056;2023-04-16T14:50:12;17.00;50.80
68433;DHT22;55412;51.350;17.056;2023-04-16T14:52:40;17.00;48.30
68433;DHT22;55412;51.350;17.056;2023-04-16T14:55:06;16.90;50.40
68433;DHT22;55412;51.350;17.056;2023-04-16T14:57:33;16.90;50.30
68433;DHT22;55412;51.350;17.056;2023-04-16T14:59:59;16.90;50.80
68433;DHT22;55412;51.350;17.056;2023-04-16T15:02:26;17.00;52.10
68433;DHT22;55412;51.350;17.056;2023-04-16T15:04:53;17.00;52.60
68433;DHT22;55412;51.350;17.056;2023-04-16T15:07:19;17.00;47.70
68433;DHT22;55412;51.350;17.056;2023-04-16T15:09:45;16.90;48.20
68433;DHT22;55412;51.350;17.056;2023-04-16T15:12:12;16.90;49.10
68433;DHT22;55412;51.350;17.056;2023-04-16T15:14:39;16.90;48.80
68433;DHT22;55412;51.350;17.056;2023-04-16T15:17:05;16.90;48.80
68433;DHT22;55412;51.350;17.056;2023-04-16T15:19:31;16.80;48.80
68433;DHT22;55412;51.350;17.056;2023-04-16T15:21:57;16.80;47.50
68433;DHT22;55412;51.350;17.056;2023-04-16T15:24:23;16.70;46.80
68433;DHT22;55412;51.350;17.056;2023-04-16T15:26:49;16.60;47.40